createdAt,value
2022-09-06T00:01:11.101Z,100720.13
2022-09-06T00:03:40.206Z,100722.20
2022-09-06T00:06:10.697Z,100723.31
2022-09-06T00:08:39.429Z,100726.81
2022-09-06T00:11:07.679Z,100726.96
2022-09-06T00:13:37.035Z,100722.33
2022-09-06T00:16:17.705Z,100725.91
2022-09-06T00:18:46.066Z,100722.61
2022-09-06T00:21:27.881Z,100722.96
2022-09-06T00:23:55.980Z,100722.45
2022-09-06T00:26:24.154Z,100721.87
2022-09-06T00:28:52.572Z,100717.36
2022-09-06T00:31:24.441Z,100717.33
2022-09-06T00:33:52.937Z,100710.02
2022-09-06T00:36:22.437Z,100711.71
2022-09-06T00:38:50.647Z,100713.09
2022-09-06T00:41:19.366Z,100715.14
2022-09-06T00:43:47.425Z,100716.55
2022-09-06T00:46:19.820Z,100715.98
2022-09-06T00:48:51.791Z,100719.55
2022-09-06T00:51:22.020Z,100722.38
2022-09-06T00:53:51.191Z,100720.71
2022-09-06T00:56:19.511Z,100721.32
2022-09-06T00:58:49.351Z,100708.54
2022-09-06T01:01:17.546Z,100715.12
2022-09-06T01:03:45.780Z,100717.08
2022-09-06T01:06:34.966Z,100717.93
2022-09-06T01:09:23.716Z,100719.67
2022-09-06T01:12:43.967Z,100717.80
2022-09-06T01:15:32.634Z,100720.48
2022-09-06T01:18:25.211Z,100724.23
2022-09-06T01:21:09.272Z,100725.31
2022-09-06T01:24:00.179Z,100723.00
2022-09-06T01:26:53.016Z,100727.38
2022-09-06T01:29:36.039Z,100727.16
2022-09-06T01:32:20.691Z,100729.45
2022-09-06T01:34:58.844Z,100728.64
2022-09-06T01:37:26.953Z,100725.36
2022-09-06T01:39:55.064Z,100725.13
2022-09-06T01:42:28.360Z,100714.96
2022-09-06T01:45:03.878Z,100721.41
2022-09-06T01:47:56.913Z,100717.45
2022-09-06T01:50:35.467Z,100719.25
2022-09-06T01:53:09.765Z,100718.98
2022-09-06T01:56:09.156Z,100712.13
2022-09-06T01:59:08.579Z,100713.93
2022-09-06T02:01:49.238Z,100718.98
2022-09-06T02:04:30.175Z,100718.56
2022-09-06T02:07:10.801Z,100720.60
2022-09-06T02:09:42.997Z,100717.77
2022-09-06T02:12:14.194Z,100721.73
2022-09-06T02:14:54.038Z,100722.48
2022-09-06T02:17:31.878Z,100721.95
2022-09-06T02:20:10.019Z,100717.71
2022-09-06T02:22:42.803Z,100721.23
2022-09-06T02:25:18.939Z,100722.97
2022-09-06T02:27:47.258Z,100722.50
2022-09-06T02:30:15.600Z,100717.81
2022-09-06T02:32:56.063Z,100717.79
2022-09-06T02:35:24.622Z,100718.50
2022-09-06T02:37:53.021Z,100720.67
2022-09-06T02:40:21.221Z,100712.23
2022-09-06T02:42:49.260Z,100711.61
2022-09-06T02:45:17.325Z,100710.08
2022-09-06T02:47:45.432Z,100714.13
2022-09-06T02:50:15.500Z,100714.19
2022-09-06T02:52:43.643Z,100714.27
2022-09-06T02:55:11.799Z,100714.83
2022-09-06T02:57:39.858Z,100718.84
2022-09-06T03:00:08.710Z,100721.00
2022-09-06T03:02:36.786Z,100716.86
2022-09-06T03:05:05.259Z,100722.64
2022-09-06T03:07:33.296Z,100722.98
2022-09-06T03:10:01.347Z,100722.66
2022-09-06T03:12:29.407Z,100722.39
2022-09-06T03:14:58.038Z,100722.98
2022-09-06T03:17:26.167Z,100721.39
2022-09-06T03:19:54.207Z,100717.94
2022-09-06T03:22:22.345Z,100722.84
2022-09-06T03:24:50.416Z,100724.78
2022-09-06T03:27:18.485Z,100722.70
2022-09-06T03:29:46.547Z,100720.88
2022-09-06T03:32:14.805Z,100722.52
2022-09-06T03:34:42.986Z,100722.62
2022-09-06T03:37:11.047Z,100719.42
2022-09-06T03:39:39.244Z,100720.96
2022-09-06T03:42:07.545Z,100722.86
2022-09-06T03:44:35.644Z,100720.81
2022-09-06T03:47:04.286Z,100717.59
2022-09-06T03:49:32.693Z,100723.94
2022-09-06T03:52:00.832Z,100721.45
2022-09-06T03:54:29.254Z,100726.59
2022-09-06T03:56:57.472Z,100734.45
2022-09-06T03:59:25.493Z,100740.95
2022-09-06T04:01:54.417Z,100740.38
2022-09-06T04:04:22.602Z,100738.11
2022-09-06T04:06:50.860Z,100738.16
2022-09-06T04:09:18.941Z,100741.70
2022-09-06T04:11:47.060Z,100741.84
2022-09-06T04:14:15.181Z,100735.05
2022-09-06T04:16:43.367Z,100734.98
2022-09-06T04:19:11.432Z,100740.55
2022-09-06T04:21:39.561Z,100742.30
2022-09-06T04:24:07.879Z,100745.30
2022-09-06T04:26:36.567Z,100743.83
2022-09-06T04:29:05.360Z,100741.52
2022-09-06T04:31:33.665Z,100744.22
2022-09-06T04:34:01.751Z,100752.70
2022-09-06T04:36:30.139Z,100751.92
2022-09-06T04:38:58.188Z,100748.34
2022-09-06T04:41:26.268Z,100749.56
2022-09-06T04:43:54.318Z,100745.44
2022-09-06T04:46:26.418Z,100747.27
2022-09-06T04:48:55.594Z,100743.56
2022-09-06T04:51:24.873Z,100744.94
2022-09-06T04:53:53.327Z,100742.09
2022-09-06T04:56:23.483Z,100742.16
2022-09-06T04:58:53.403Z,100738.84
2022-09-06T05:01:22.086Z,100738.04
2022-09-06T05:03:52.995Z,100738.71
2022-09-06T05:06:24.727Z,100740.11
2022-09-06T05:08:52.963Z,100746.83
2022-09-06T05:11:21.146Z,100740.86
2022-09-06T05:13:50.486Z,100738.48
2022-09-06T05:16:18.776Z,100735.55
2022-09-06T05:18:46.886Z,100738.73
2022-09-06T05:21:16.085Z,100735.29
2022-09-06T05:23:44.326Z,100737.02
2022-09-06T05:26:12.504Z,100741.08
2022-09-06T05:28:40.722Z,100744.88
2022-09-06T05:31:32.112Z,100748.00
2022-09-06T05:34:00.637Z,100747.01
2022-09-06T05:36:30.600Z,100748.33
2022-09-06T05:38:59.533Z,100752.96
2022-09-06T05:41:27.742Z,100754.10
2022-09-06T05:43:55.971Z,100751.38
2022-09-06T05:46:24.187Z,100749.36
2022-09-06T05:48:58.254Z,100753.69
2022-09-06T05:51:26.654Z,100752.89
2022-09-06T05:53:54.747Z,100753.93
2022-09-06T05:56:23.312Z,100755.02
2022-09-06T05:58:51.506Z,100757.61
2022-09-06T06:01:27.811Z,100756.74
2022-09-06T06:04:04.198Z,100756.42
2022-09-06T06:06:33.984Z,100759.18
2022-09-06T06:09:02.094Z,100757.40
2022-09-06T06:11:31.370Z,100763.84
2022-09-06T06:13:59.704Z,100759.53
2022-09-06T06:16:27.826Z,100754.16
2022-09-06T06:18:56.162Z,100751.60
2022-09-06T06:21:29.288Z,100751.01
2022-09-06T06:24:02.315Z,100751.56
2022-09-06T06:26:34.304Z,100745.21
2022-09-06T06:29:02.602Z,100745.15
2022-09-06T06:31:32.432Z,100746.89
2022-09-06T06:34:03.301Z,100749.31
2022-09-06T06:36:34.067Z,100750.92
2022-09-06T06:39:04.935Z,100749.93
2022-09-06T06:41:33.306Z,100747.72
2022-09-06T06:44:03.953Z,100751.58
2022-09-06T06:46:35.131Z,100748.61
2022-09-06T06:49:04.110Z,100756.10
2022-09-06T06:51:36.301Z,100756.88
2022-09-06T06:54:05.749Z,100759.23
2022-09-06T06:56:36.958Z,100761.70
2022-09-06T06:59:07.975Z,100762.91
2022-09-06T07:01:37.307Z,100766.83
2022-09-06T07:04:06.883Z,100761.05
2022-09-06T07:12:27.970Z,100758.77
2022-09-06T07:14:56.009Z,100763.62
2022-09-06T07:17:24.075Z,100757.66
2022-09-06T07:22:41.059Z,100764.73
2022-09-06T07:25:12.688Z,100769.73
2022-09-06T07:27:49.347Z,100768.65
2022-09-06T07:30:20.358Z,100771.55
2022-09-06T07:32:49.107Z,100772.73
2022-09-06T07:35:17.442Z,100777.80
2022-09-06T07:37:52.645Z,100775.19
2022-09-06T07:40:20.798Z,100772.39
2022-09-06T07:42:48.866Z,100767.95
2022-09-06T07:45:17.604Z,100770.41
2022-09-06T07:48:01.113Z,100770.05
2022-09-06T07:50:47.515Z,100768.44
2022-09-06T07:53:23.321Z,100769.45
2022-09-06T07:55:54.437Z,100769.70
2022-09-06T07:58:23.030Z,100768.48
2022-09-06T08:00:51.248Z,100771.25
2022-09-06T08:03:19.376Z,100763.56
2022-09-06T08:11:32.720Z,100759.94
2022-09-06T08:14:03.107Z,100755.09
2022-09-06T08:16:32.436Z,100748.55
2022-09-06T08:19:11.100Z,100749.96
2022-09-06T08:21:39.527Z,100750.04
2022-09-06T08:24:12.350Z,100750.09
2022-09-06T08:26:43.526Z,100746.23
2022-09-06T08:29:12.881Z,100743.52
2022-09-06T08:31:43.352Z,100742.48
2022-09-06T08:34:15.377Z,100739.71
2022-09-06T08:36:44.951Z,100737.67
2022-09-06T08:39:13.035Z,100725.56
2022-09-06T08:41:50.076Z,100724.94
2022-09-06T08:47:15.260Z,100705.33
2022-09-06T08:49:49.279Z,100708.95
2022-09-06T08:52:26.551Z,100703.20
2022-09-06T08:55:05.424Z,100703.29
2022-09-06T08:58:13.557Z,100700.77
2022-09-06T09:00:47.145Z,100698.23
2022-09-06T09:03:20.471Z,100694.59
2022-09-06T09:05:52.506Z,100693.90
2022-09-06T09:08:29.866Z,100698.08
2022-09-06T09:11:02.370Z,100690.64
2022-09-06T09:13:40.972Z,100684.98
2022-09-06T09:16:10.149Z,100689.60
2022-09-06T09:18:42.207Z,100689.65
2022-09-06T09:21:10.766Z,100689.42
2022-09-06T09:23:38.827Z,100691.59
2022-09-06T09:26:12.395Z,100687.61
2022-09-06T09:29:00.221Z,100685.40
2022-09-06T09:31:36.855Z,100682.33
2022-09-06T09:34:06.107Z,100679.83
2022-09-06T09:36:34.256Z,100680.89
2022-09-06T09:39:09.993Z,100679.80
2022-09-06T09:41:41.289Z,100680.48
2022-09-06T09:44:18.087Z,100675.63
2022-09-06T09:46:46.259Z,100674.98
2022-09-06T09:49:29.311Z,100673.73
2022-09-06T09:52:13.206Z,100668.34
2022-09-06T09:54:42.737Z,100667.93
2022-09-06T09:57:18.852Z,100666.58
2022-09-06T09:59:58.956Z,100661.88
2022-09-06T10:02:39.263Z,100660.70
2022-09-06T10:05:07.476Z,100657.99
2022-09-06T10:07:53.239Z,100654.66
2022-09-06T10:10:27.599Z,100656.48
2022-09-06T10:13:26.752Z,100658.17
2022-09-06T10:15:55.833Z,100655.42
2022-09-06T10:18:33.124Z,100659.12
2022-09-06T10:21:04.833Z,100657.11
2022-09-06T10:27:02.596Z,100658.27
2022-09-06T10:29:53.184Z,100657.39
2022-09-06T10:32:56.263Z,100652.99
2022-09-06T10:35:31.561Z,100648.17
2022-09-06T10:38:05.855Z,100649.25
2022-09-06T10:40:49.100Z,100648.91
2022-09-06T10:43:19.313Z,100651.00
2022-09-06T10:46:10.610Z,100645.90
2022-09-06T10:48:56.936Z,100646.30
2022-09-06T10:51:32.661Z,100649.91
2022-09-06T10:54:00.669Z,100649.23
2022-09-06T10:56:57.295Z,100649.34
2022-09-06T10:59:38.275Z,100646.09
2022-09-06T11:02:40.093Z,100646.32
2022-09-06T11:10:58.669Z,100646.98
2022-09-06T11:13:28.469Z,100645.27
2022-09-06T11:16:04.264Z,100643.38
2022-09-06T11:19:00.103Z,100643.31
2022-09-06T11:21:50.069Z,100644.36
2022-09-06T11:24:40.122Z,100642.79
2022-09-06T11:27:25.643Z,100639.13
2022-09-06T11:29:58.482Z,100641.77
2022-09-06T11:32:35.508Z,100637.83
2022-09-06T11:35:10.121Z,100635.14
2022-09-06T11:37:44.178Z,100629.63
2022-09-06T11:40:28.226Z,100633.58
2022-09-06T11:42:59.514Z,100633.23
2022-09-06T11:46:00.247Z,100632.46
2022-09-06T11:48:34.680Z,100626.02
2022-09-06T11:51:06.879Z,100618.95
2022-09-06T11:53:58.001Z,100624.23
2022-09-06T11:57:09.879Z,100617.88
2022-09-06T11:59:47.933Z,100616.77
2022-09-06T12:02:46.440Z,100613.50
2022-09-06T12:05:26.229Z,100614.31
2022-09-06T12:08:16.298Z,100613.25
2022-09-06T12:10:56.109Z,100607.84
2022-09-06T12:13:48.027Z,100603.71
2022-09-06T12:16:17.746Z,100599.09
2022-09-06T12:18:48.821Z,100597.95
2022-09-06T12:21:40.671Z,100594.98
2022-09-06T12:24:30.158Z,100591.90
2022-09-06T12:27:17.788Z,100586.70
2022-09-06T12:30:07.525Z,100588.15
2022-09-06T12:32:44.060Z,100585.15
2022-09-06T12:38:14.913Z,100579.52
2022-09-06T12:40:48.813Z,100567.14
2022-09-06T12:43:17.939Z,100567.04
2022-09-06T12:45:48.367Z,100565.23
2022-09-06T12:48:28.665Z,100566.36
2022-09-06T12:51:09.531Z,100561.76
2022-09-06T12:53:38.466Z,100567.27
2022-09-06T12:56:08.100Z,100557.64
2022-09-06T12:58:36.909Z,100551.83
2022-09-06T13:01:12.603Z,100563.27
2022-09-06T13:04:03.029Z,100561.61
2022-09-06T13:06:39.830Z,100558.36
2022-09-06T13:09:13.235Z,100551.05
2022-09-06T13:11:46.362Z,100552.90
2022-09-06T13:14:19.658Z,100551.72
2022-09-06T13:16:50.805Z,100552.87
2022-09-06T13:19:35.967Z,100551.66
2022-09-06T13:22:07.737Z,100549.59
2022-09-06T13:24:35.779Z,100547.84
2022-09-06T13:27:31.580Z,100545.46
2022-09-06T13:30:02.619Z,100546.82
2022-09-06T13:32:30.808Z,100542.33
2022-09-06T13:35:00.558Z,100542.77
2022-09-06T13:37:32.105Z,100540.45
2022-09-06T13:40:02.756Z,100539.23
2022-09-06T13:42:33.248Z,100540.38
2022-09-06T13:45:30.468Z,100535.00
2022-09-06T13:48:13.224Z,100537.20
2022-09-06T13:50:46.726Z,100531.45
2022-09-06T13:53:20.034Z,100532.68
2022-09-06T13:55:48.031Z,100529.68
2022-09-06T13:58:16.402Z,100531.48
2022-09-06T14:00:47.010Z,100528.60
2022-09-06T14:03:31.285Z,100525.06
2022-09-06T14:06:00.494Z,100523.98
2022-09-06T14:08:43.649Z,100521.74
2022-09-06T14:11:18.789Z,100527.16
2022-09-06T14:13:46.898Z,100522.48
2022-09-06T14:16:15.191Z,100524.62
2022-09-06T14:18:43.880Z,100524.70
2022-09-06T14:21:12.577Z,100518.85
2022-09-06T14:23:40.697Z,100516.24
2022-09-06T14:26:09.626Z,100518.80
2022-09-06T14:28:37.685Z,100515.52
2022-09-06T14:31:18.082Z,100513.75
2022-09-06T14:33:46.369Z,100512.08
2022-09-06T14:36:17.261Z,100510.79
2022-09-06T14:38:46.296Z,100510.52
2022-09-06T14:41:16.592Z,100513.23
2022-09-06T14:43:49.042Z,100513.91
2022-09-06T14:46:18.566Z,100512.67
2022-09-06T14:48:47.261Z,100512.35
2022-09-06T14:51:22.153Z,100507.27
2022-09-06T14:53:54.275Z,100505.66
2022-09-06T14:56:23.265Z,100504.61
2022-09-06T14:58:51.454Z,100506.11
2022-09-06T15:01:22.713Z,100505.02
2022-09-06T15:03:54.856Z,100503.57
2022-09-06T15:06:25.215Z,100503.33
2022-09-06T15:08:59.018Z,100504.67
2022-09-06T15:11:31.632Z,100505.65
2022-09-06T15:14:00.274Z,100508.84
2022-09-06T15:16:29.003Z,100501.85
2022-09-06T15:18:57.521Z,100501.91
2022-09-06T15:21:26.100Z,100505.23
2022-09-06T15:23:54.885Z,100500.91
2022-09-06T15:26:23.043Z,100500.18
2022-09-06T15:28:51.279Z,100499.90
2022-09-06T15:31:20.268Z,100504.91
2022-09-06T15:33:50.488Z,100508.20
2022-09-06T15:36:18.960Z,100511.04
2022-09-06T15:38:49.167Z,100514.05
2022-09-06T15:41:26.432Z,100514.97
2022-09-06T15:43:57.119Z,100519.21
2022-09-06T15:46:48.480Z,100518.18
2022-09-06T15:49:23.256Z,100520.84
2022-09-06T15:51:54.066Z,100526.56
2022-09-06T15:54:42.410Z,100527.57
2022-09-06T15:57:10.630Z,100530.80
2022-09-06T15:59:40.590Z,100528.48
2022-09-06T16:02:09.672Z,100532.23
2022-09-06T16:04:37.819Z,100530.40
2022-09-06T16:07:06.138Z,100529.66
2022-09-06T16:09:34.357Z,100532.10
2022-09-06T16:12:02.619Z,100529.48
2022-09-06T16:14:31.676Z,100526.42
2022-09-06T16:16:59.913Z,100524.56
2022-09-06T16:19:28.156Z,100524.92
2022-09-06T16:21:56.258Z,100526.44
2022-09-06T16:24:24.358Z,100523.50
2022-09-06T16:26:52.664Z,100520.02
2022-09-06T16:29:20.839Z,100521.71
2022-09-06T16:31:48.934Z,100520.46
2022-09-06T16:34:17.076Z,100520.20
2022-09-06T16:36:45.226Z,100520.02
2022-09-06T16:39:13.394Z,100519.84
2022-09-06T16:41:44.318Z,100521.48
2022-09-06T16:44:16.769Z,100522.74
2022-09-06T16:46:48.459Z,100523.80
2022-09-06T16:49:17.980Z,100525.65
2022-09-06T16:51:47.865Z,100528.46
2022-09-06T16:54:17.294Z,100533.30
2022-09-06T16:56:46.145Z,100537.04
2022-09-06T16:59:17.487Z,100539.15
2022-09-06T17:01:46.281Z,100540.92
2022-09-06T17:04:15.485Z,100545.90
2022-09-06T17:06:47.113Z,100546.80
2022-09-06T17:09:19.330Z,100547.38
2022-09-06T17:11:50.385Z,100550.20
2022-09-06T17:14:19.154Z,100553.64
2022-09-06T17:17:05.849Z,100552.20
2022-09-06T17:19:36.781Z,100559.86
2022-09-06T17:22:05.722Z,100563.14
2022-09-06T17:24:34.073Z,100567.16
2022-09-06T17:27:02.270Z,100568.21
2022-09-06T17:29:30.723Z,100570.06
2022-09-06T17:31:59.969Z,100572.81
2022-09-06T17:34:28.150Z,100577.77
2022-09-06T17:36:56.331Z,100576.95
2022-09-06T17:39:24.567Z,100579.92
2022-09-06T17:41:54.479Z,100578.74
2022-09-06T17:44:26.059Z,100578.53
2022-09-06T17:49:43.779Z,100588.00
2022-09-06T17:52:12.714Z,100594.35
2022-09-06T17:54:40.923Z,100599.96
2022-09-06T17:57:09.258Z,100600.45
2022-09-06T17:59:38.687Z,100602.63
2022-09-06T18:02:08.523Z,100605.23
2022-09-06T18:04:37.547Z,100605.06
2022-09-06T18:07:06.019Z,100606.19
2022-09-06T18:09:34.308Z,100606.31
2022-09-06T18:12:03.081Z,100607.40
2022-09-06T18:14:31.238Z,100605.38
2022-09-06T18:16:59.728Z,100606.05
2022-09-06T18:19:28.229Z,100607.70
2022-09-06T18:21:57.558Z,100609.48
2022-09-06T18:24:25.875Z,100608.70
2022-09-06T18:26:54.069Z,100608.38
2022-09-06T18:29:22.696Z,100612.98
2022-09-06T18:31:54.226Z,100608.29
2022-09-06T18:34:22.632Z,100607.73
2022-09-06T18:36:51.013Z,100608.68
2022-09-06T18:39:20.464Z,100610.71
2022-09-06T18:42:01.219Z,100605.69
2022-09-06T18:44:32.742Z,100608.68
2022-09-06T18:47:03.367Z,100607.04
2022-09-06T18:49:32.672Z,100604.13
2022-09-06T18:52:05.979Z,100606.01
2022-09-06T18:54:35.092Z,100607.59
2022-09-06T18:57:03.593Z,100603.13
2022-09-06T18:59:31.867Z,100596.79
2022-09-06T19:02:00.150Z,100597.85
2022-09-06T19:04:28.437Z,100597.68
2022-09-06T19:06:56.641Z,100596.91
2022-09-06T19:09:24.769Z,100594.98
2022-09-06T19:11:53.565Z,100597.84
2022-09-06T19:14:22.254Z,100597.76
2022-09-06T19:16:51.921Z,100595.52
2022-09-06T19:19:21.942Z,100595.28
2022-09-06T19:21:50.362Z,100594.96
2022-09-06T19:24:22.545Z,100596.17
2022-09-06T19:26:51.626Z,100596.06
2022-09-06T19:29:20.057Z,100593.50
2022-09-06T19:31:49.467Z,100594.84
2022-09-06T19:34:17.786Z,100592.12
2022-09-06T19:36:46.006Z,100590.09
2022-09-06T19:39:16.192Z,100591.33
2022-09-06T19:41:47.065Z,100589.27
2022-09-06T19:44:17.254Z,100590.56
2022-09-06T19:46:47.303Z,100591.12
2022-09-06T19:49:20.297Z,100587.95
2022-09-06T19:51:49.577Z,100587.14
2022-09-06T19:54:18.158Z,100586.88
2022-09-06T19:56:46.717Z,100587.67
2022-09-06T19:59:16.426Z,100589.29
2022-09-06T20:01:45.889Z,100587.05
2022-09-06T20:04:14.889Z,100579.80
2022-09-06T20:06:43.125Z,100579.50
2022-09-06T20:09:11.663Z,100580.05
2022-09-06T20:11:41.366Z,100578.95
2022-09-06T20:14:11.862Z,100580.23
2022-09-06T20:16:42.215Z,100580.98
2022-09-06T20:19:12.722Z,100581.79
2022-09-06T20:21:40.855Z,100583.98
2022-09-06T20:24:09.201Z,100590.20
2022-09-06T20:26:38.039Z,100591.42
2022-09-06T20:29:07.065Z,100591.94
2022-09-06T20:31:36.830Z,100592.02
2022-09-06T20:34:06.565Z,100592.80
2022-09-06T20:36:35.134Z,100596.30
2022-09-06T20:39:03.653Z,100597.45
2022-09-06T20:41:32.165Z,100594.98
2022-09-06T20:44:00.308Z,100597.54
2022-09-06T20:46:31.365Z,100596.15
2022-09-06T20:49:04.358Z,100597.50
2022-09-06T20:51:35.171Z,100595.98
2022-09-06T20:54:05.266Z,100599.30
2022-09-06T20:56:37.278Z,100602.48
2022-09-06T20:59:08.689Z,100601.90
2022-09-06T21:01:40.487Z,100603.06
2022-09-06T21:04:09.763Z,100613.75
2022-09-06T21:06:39.738Z,100614.91
2022-09-06T21:09:10.860Z,100613.86
2022-09-06T21:11:39.883Z,100614.28
2022-09-06T21:14:08.314Z,100614.95
2022-09-06T21:16:37.881Z,100624.87
2022-09-06T21:19:08.242Z,100625.80
2022-09-06T21:21:38.169Z,100624.79
2022-09-06T21:24:08.048Z,100627.55
2022-09-06T21:26:36.388Z,100627.39
2022-09-06T21:29:04.951Z,100627.42
2022-09-06T21:31:36.285Z,100627.20
2022-09-06T21:34:16.229Z,100624.08
2022-09-06T21:36:45.881Z,100626.27
2022-09-06T21:39:15.008Z,100624.66
2022-09-06T21:41:44.298Z,100622.45
2022-09-06T21:44:13.260Z,100623.42
2022-09-06T21:46:42.107Z,100623.37
2022-09-06T21:49:12.907Z,100622.30
2022-09-06T21:51:42.079Z,100623.92
2022-09-06T21:54:11.103Z,100626.11
2022-09-06T21:56:40.213Z,100627.99
2022-09-06T21:59:08.821Z,100627.59
2022-09-06T22:01:39.511Z,100628.75
2022-09-06T22:04:08.546Z,100627.98
2022-09-06T22:06:37.926Z,100635.60
2022-09-06T22:09:11.132Z,100636.52
2022-09-06T22:11:42.724Z,100638.40
2022-09-06T22:14:13.346Z,100637.58
2022-09-06T22:16:42.159Z,100636.02
2022-09-06T22:19:10.618Z,100636.95
2022-09-06T22:21:39.538Z,100635.61
2022-09-06T22:24:10.229Z,100637.61
2022-09-06T22:26:40.314Z,100641.59
2022-09-06T22:29:10.330Z,100642.14
2022-09-06T22:31:39.144Z,100640.88
2022-09-06T22:34:07.892Z,100637.97
2022-09-06T22:36:36.075Z,100635.69
2022-09-06T22:39:04.697Z,100635.23
2022-09-06T22:41:34.207Z,100629.52
2022-09-06T22:44:03.705Z,100628.58
2022-09-06T22:46:32.338Z,100632.23
2022-09-06T22:49:01.051Z,100637.29
2022-09-06T22:51:29.192Z,100643.56
2022-09-06T22:53:57.332Z,100648.23
2022-09-06T22:56:25.535Z,100645.95
2022-09-06T22:58:53.863Z,100651.56
2022-09-06T23:01:22.266Z,100648.85
2022-09-06T23:03:50.960Z,100648.11
2022-09-06T23:06:19.402Z,100642.34
2022-09-06T23:08:47.555Z,100637.87
2022-09-06T23:11:17.539Z,100637.70
2022-09-06T23:13:47.241Z,100636.94
2022-09-06T23:16:18.592Z,100632.56
2022-09-06T23:18:47.468Z,100631.14
2022-09-06T23:21:21.822Z,100633.20
2022-09-06T23:23:51.748Z,100631.37
2022-09-06T23:26:23.418Z,100627.73
2022-09-06T23:28:56.627Z,100628.08
2022-09-06T23:31:28.176Z,100627.13
2022-09-06T23:33:58.458Z,100625.24
2022-09-06T23:36:28.141Z,100625.75
2022-09-06T23:38:57.233Z,100625.14
2022-09-06T23:41:25.698Z,100622.63
2022-09-06T23:43:54.141Z,100619.32
2022-09-06T23:46:22.494Z,100618.59
2022-09-06T23:48:50.738Z,100614.69
2022-09-06T23:51:19.000Z,100609.10
2022-09-06T23:53:47.129Z,100605.16
2022-09-06T23:56:15.957Z,100603.45
2022-09-06T23:58:44.115Z,100606.87
